Acton, Maine
Current Conditions -  °F | °C
As of 3:15 PM on Sunday 23 Nov 2014 (Local Time) from KSFM Reporting Station
Broken Clouds Broken Clouds  
Wind Chill: 13°   Ceiling: 5000
Heat Index: 13°   Visibility: 10mi
Dew Point:   Wind: 5mph
Humidity: 51%   Direction: 240°WSW
Pressure: 30.09"   Gusts: NA
Location:  43.53°N, 70.91°W
Report Text: KSFM 232015Z AUTO 24004KT 10SM SCT046 BKN050 13/03 A3009 RMK AO1
Loading
Personal Weather Stations






























Interactive Weather Map New forecast layout! Learn more

10-Day Weather Forecast

Advertisements
Track Severe Weather on mobile